createdAt,value
2017-08-28T00:02:06.551Z,99555
2017-08-28T00:04:14.754Z,99547
2017-08-28T00:06:23.266Z,99552
2017-08-28T00:08:31.992Z,99551
2017-08-28T00:10:41.034Z,99553
2017-08-28T00:12:49.317Z,99552
2017-08-28T00:14:58.964Z,99545
2017-08-28T00:17:05.864Z,99546
2017-08-28T00:19:12.165Z,99544
2017-08-28T00:21:18.560Z,99546
2017-08-28T00:23:24.663Z,99540
2017-08-28T00:25:31.286Z,99542
2017-08-28T00:27:40.479Z,99546
2017-08-28T00:29:49.658Z,99550
2017-08-28T00:31:58.209Z,99554
2017-08-28T00:34:05.585Z,99549
2017-08-28T00:36:12.161Z,99553
2017-08-28T00:38:21.052Z,99556
2017-08-28T00:40:28.900Z,99556
2017-08-28T00:42:35.600Z,99556
2017-08-28T00:44:48.525Z,99558
2017-08-28T00:46:57.829Z,99558
2017-08-28T00:49:04.757Z,99555
2017-08-28T00:51:10.944Z,99551
2017-08-28T00:53:17.318Z,99553
2017-08-28T00:55:23.673Z,99557
2017-08-28T00:57:29.923Z,99554
2017-08-28T00:59:36.134Z,99555
2017-08-28T01:01:48.515Z,99558
2017-08-28T01:03:55.128Z,99555
2017-08-28T01:06:02.512Z,99559
2017-08-28T01:08:08.751Z,99565
2017-08-28T01:10:14.945Z,99568
2017-08-28T01:12:21.985Z,99570
2017-08-28T01:14:28.093Z,99571
2017-08-28T01:16:34.688Z,99567
2017-08-28T01:18:43.606Z,99576
2017-08-28T01:20:52.677Z,99574
2017-08-28T01:23:00.827Z,99580
2017-08-28T01:25:08.210Z,99582
2017-08-28T01:27:15.210Z,99578
2017-08-28T01:29:22.290Z,99583
2017-08-28T01:31:29.216Z,99582
2017-08-28T01:33:35.544Z,99581
2017-08-28T01:35:47.454Z,99584
2017-08-28T01:37:54.864Z,99584
2017-08-28T01:40:02.285Z,99586
2017-08-28T01:42:08.234Z,99581
2017-08-28T01:44:14.959Z,99582
2017-08-28T01:46:21.371Z,99578
2017-08-28T01:48:27.088Z,99580
2017-08-28T01:50:33.516Z,99579
2017-08-28T01:52:39.024Z,99575
2017-08-28T01:54:48.358Z,99578
2017-08-28T01:56:59.048Z,99575
2017-08-28T01:59:04.796Z,99577
2017-08-28T02:01:10.824Z,99587
2017-08-28T02:03:17.502Z,99586
2017-08-28T02:05:23.502Z,99585
2017-08-28T02:07:29.419Z,99586
2017-08-28T02:09:36.047Z,99594
2017-08-28T02:11:46.026Z,99593
2017-08-28T02:13:54.068Z,99595
2017-08-28T02:16:00.032Z,99593
2017-08-28T02:18:06.426Z,99590
2017-08-28T02:20:13.495Z,99590
2017-08-28T02:22:20.258Z,99591
2017-08-28T02:24:27.210Z,99592
2017-08-28T02:26:34.058Z,99587
2017-08-28T02:28:45.155Z,99585
2017-08-28T02:30:54.940Z,99583
2017-08-28T02:33:02.351Z,99579
2017-08-28T02:35:08.306Z,99578
2017-08-28T02:37:14.005Z,99577
2017-08-28T02:39:21.005Z,99579
2017-08-28T02:41:27.543Z,99577
2017-08-28T02:43:33.443Z,99576
2017-08-28T02:45:43.381Z,99573
2017-08-28T02:47:50.936Z,99574
2017-08-28T02:49:59.554Z,99580
2017-08-28T02:52:05.503Z,99584
2017-08-28T02:54:11.963Z,99585
2017-08-28T02:56:18.723Z,99583
2017-08-28T02:58:25.587Z,99585
2017-08-28T03:03:03.640Z,99581
2017-08-28T03:05:10.876Z,99584
2017-08-28T03:07:25.275Z,99582
2017-08-28T03:09:32.108Z,99582
2017-08-28T03:11:40.604Z,99585
2017-08-28T03:13:51.116Z,99586
2017-08-28T03:15:58.054Z,99584
2017-08-28T03:18:04.000Z,99588
2017-08-28T03:20:09.613Z,99589
2017-08-28T03:22:16.037Z,99589
2017-08-28T03:24:23.061Z,99588
2017-08-28T03:26:29.688Z,99585
2017-08-28T03:28:35.360Z,99588
2017-08-28T03:30:47.044Z,99585
2017-08-28T03:32:55.067Z,99585
2017-08-28T03:35:01.690Z,99583
2017-08-28T03:37:09.229Z,99589
2017-08-28T03:39:15.590Z,99588
2017-08-28T03:41:21.334Z,99589
2017-08-28T03:43:27.551Z,99592
2017-08-28T03:45:33.733Z,99588
2017-08-28T03:47:41.390Z,99586
2017-08-28T03:49:52.936Z,99586
2017-08-28T03:51:59.782Z,99590
2017-08-28T03:54:05.887Z,99591
2017-08-28T03:56:12.332Z,99594
2017-08-28T03:58:18.230Z,99591
2017-08-28T04:00:24.624Z,99593
2017-08-28T04:02:30.209Z,99587
2017-08-28T04:04:36.584Z,99593
2017-08-28T04:06:49.347Z,99593
2017-08-28T04:08:58.917Z,99596
2017-08-28T04:11:07.274Z,99596
2017-08-28T04:13:19.980Z,99597
2017-08-28T04:15:27.560Z,99599
2017-08-28T04:17:33.713Z,99605
2017-08-28T04:19:45.554Z,99606
2017-08-28T04:21:53.370Z,99606
2017-08-28T04:24:00.928Z,99608
2017-08-28T04:26:07.282Z,99610
2017-08-28T04:28:13.625Z,99602
2017-08-28T04:30:20.330Z,99605
2017-08-28T04:32:37.511Z,99599
2017-08-28T04:34:46.388Z,99604
2017-08-28T04:37:17.365Z,99604
2017-08-28T04:41:54.650Z,99609
2017-08-28T04:44:05.547Z,99604
2017-08-28T04:46:13.514Z,99609
2017-08-28T04:48:20.580Z,99609
2017-08-28T04:50:27.084Z,99601
2017-08-28T04:52:33.491Z,99603
2017-08-28T04:54:46.343Z,99601
2017-08-28T04:56:53.856Z,99605
2017-08-28T04:59:02.394Z,99603
2017-08-28T05:01:08.117Z,99610
2017-08-28T05:03:14.888Z,99600
2017-08-28T05:05:20.572Z,99609
2017-08-28T05:07:26.227Z,99607
2017-08-28T05:09:32.503Z,99607
2017-08-28T05:11:40.529Z,99608
2017-08-28T05:13:51.818Z,99611
2017-08-28T05:15:59.575Z,99609
2017-08-28T05:18:06.541Z,99609
2017-08-28T05:20:14.144Z,99602
2017-08-28T05:22:20.859Z,99609
2017-08-28T05:24:27.326Z,99605
2017-08-28T05:26:33.493Z,99604
2017-08-28T05:28:44.595Z,99600
2017-08-28T05:30:52.979Z,99602
2017-08-28T05:32:59.615Z,99606
2017-08-28T05:35:07.934Z,99611
2017-08-28T05:37:14.041Z,99609
2017-08-28T05:39:19.667Z,99612
2017-08-28T05:41:25.263Z,99614
2017-08-28T05:43:31.369Z,99619
2017-08-28T05:45:40.093Z,99615
2017-08-28T05:47:49.339Z,99618
2017-08-28T05:49:56.871Z,99616
2017-08-28T05:52:02.896Z,99621
2017-08-28T05:54:08.681Z,99622
2017-08-28T05:56:14.719Z,99623
2017-08-28T05:58:20.289Z,99626
2017-08-28T06:00:27.814Z,99631
2017-08-28T06:02:34.025Z,99627
2017-08-28T06:04:45.009Z,99627
2017-08-28T06:06:53.754Z,99630
2017-08-28T06:09:02.589Z,99629
2017-08-28T06:11:09.436Z,99635
2017-08-28T06:13:15.044Z,99632
2017-08-28T06:15:20.843Z,99634
2017-08-28T06:17:26.575Z,99631
2017-08-28T06:19:32.355Z,99632
2017-08-28T06:21:39.377Z,99631
2017-08-28T06:23:49.118Z,99631
2017-08-28T06:26:00.340Z,99628
2017-08-28T06:28:07.385Z,99632
2017-08-28T06:30:13.789Z,99635
2017-08-28T06:32:20.285Z,99638
2017-08-28T06:34:27.873Z,99632
2017-08-28T06:36:33.688Z,99637
2017-08-28T06:38:45.535Z,99636
2017-08-28T06:40:51.247Z,99634
2017-08-28T06:43:01.346Z,99633
2017-08-28T06:45:07.449Z,99634
2017-08-28T06:47:14.288Z,99627
2017-08-28T06:49:20.497Z,99635
2017-08-28T06:51:26.726Z,99632
2017-08-28T06:53:33.357Z,99626
2017-08-28T06:55:39.038Z,99633
2017-08-28T06:57:47.427Z,99635
2017-08-28T07:00:02.628Z,99634
2017-08-28T07:02:08.281Z,99641
2017-08-28T07:04:14.553Z,99641
2017-08-28T07:06:20.395Z,99640
2017-08-28T07:08:26.419Z,99637
2017-08-28T07:10:32.369Z,99637
2017-08-28T07:12:38.191Z,99643
2017-08-28T07:14:46.318Z,99644
2017-08-28T07:16:52.500Z,99644
2017-08-28T07:19:05.924Z,99644
2017-08-28T07:21:11.327Z,99647
2017-08-28T07:23:16.843Z,99638
2017-08-28T07:25:23.034Z,99644
2017-08-28T07:27:29.757Z,99641
2017-08-28T07:29:36.837Z,99639
2017-08-28T07:31:49.744Z,99638
2017-08-28T07:34:04.992Z,99639
2017-08-28T07:36:13.089Z,99639
2017-08-28T07:38:21.042Z,99643
2017-08-28T07:40:28.847Z,99637
2017-08-28T07:42:36.378Z,99634
2017-08-28T07:44:45.551Z,99638
2017-08-28T07:46:53.885Z,99634
2017-08-28T07:49:01.244Z,99641
2017-08-28T07:51:08.261Z,99638
2017-08-28T07:55:27.078Z,99639
2017-08-28T07:57:35.597Z,99637
2017-08-28T07:59:45.434Z,99636
2017-08-28T08:01:53.853Z,99638
2017-08-28T08:04:00.049Z,99639
2017-08-28T08:06:07.304Z,99646
2017-08-28T08:08:13.951Z,99638
2017-08-28T08:10:20.817Z,99641
2017-08-28T08:12:26.618Z,99642
2017-08-28T08:14:33.818Z,99639
2017-08-28T08:16:44.292Z,99642
2017-08-28T08:18:52.363Z,99638
2017-08-28T08:20:58.682Z,99632
2017-08-28T08:23:05.335Z,99628
2017-08-28T08:25:11.270Z,99627
2017-08-28T08:27:17.057Z,99634
2017-08-28T08:29:23.437Z,99632
2017-08-28T08:31:29.127Z,99632
2017-08-28T08:33:38.747Z,99635
2017-08-28T08:35:47.856Z,99631
2017-08-28T08:37:54.693Z,99632
2017-08-28T08:40:02.049Z,99635
2017-08-28T08:42:07.808Z,99633
2017-08-28T08:44:13.741Z,99626
2017-08-28T08:46:19.204Z,99630
2017-08-28T08:48:26.500Z,99632
2017-08-28T08:50:33.566Z,99621
2017-08-28T08:52:44.563Z,99620
2017-08-28T08:54:55.457Z,99627
2017-08-28T08:57:02.113Z,99628
2017-08-28T08:59:08.832Z,99626
2017-08-28T09:01:17.053Z,99628
2017-08-28T09:03:27.194Z,99627
2017-08-28T09:05:33.065Z,99622
2017-08-28T09:07:44.106Z,99627
2017-08-28T09:09:51.996Z,99626
2017-08-28T09:12:04.538Z,99629
2017-08-28T09:14:11.037Z,99627
2017-08-28T09:16:16.861Z,99635
2017-08-28T09:18:23.179Z,99633
2017-08-28T09:20:28.715Z,99631
2017-08-28T09:22:35.089Z,99623
2017-08-28T09:24:44.448Z,99625
2017-08-28T09:26:51.981Z,99628
2017-08-28T09:29:00.209Z,99631
2017-08-28T09:31:06.365Z,99625
2017-08-28T09:33:12.213Z,99633
2017-08-28T09:35:17.864Z,99634
2017-08-28T09:37:26.231Z,99632
2017-08-28T09:39:32.631Z,99631
2017-08-28T09:41:39.527Z,99627
2017-08-28T09:43:48.807Z,99629
2017-08-28T09:45:59.551Z,99627
2017-08-28T09:48:05.476Z,99629
2017-08-28T09:50:13.576Z,99622
2017-08-28T09:52:21.879Z,99619
2017-08-28T09:54:27.941Z,99617
2017-08-28T09:56:34.626Z,99626
2017-08-28T09:58:48.009Z,99621
2017-08-28T10:00:54.140Z,99626
2017-08-28T10:03:03.211Z,99621
2017-08-28T10:05:09.180Z,99627
2017-08-28T10:07:16.035Z,99627
2017-08-28T10:09:22.252Z,99632
2017-08-28T10:11:29.272Z,99633
2017-08-28T10:13:34.961Z,99627
2017-08-28T10:15:46.568Z,99629
2017-08-28T10:18:05.640Z,99629
2017-08-28T10:20:12.218Z,99631
2017-08-28T10:22:25.800Z,99627
2017-08-28T10:25:22.013Z,99628
2017-08-28T10:27:53.452Z,99618
2017-08-28T10:30:26.560Z,99621
2017-08-28T10:32:40.480Z,99613
2017-08-28T10:35:21.245Z,99614
2017-08-28T10:37:27.784Z,99613
2017-08-28T10:39:34.210Z,99611
2017-08-28T10:41:44.825Z,99615
2017-08-28T10:43:55.062Z,99610
2017-08-28T10:46:02.621Z,99611
2017-08-28T10:48:08.684Z,99611
2017-08-28T10:50:15.478Z,99612
2017-08-28T10:52:21.356Z,99607
2017-08-28T10:54:28.670Z,99608
2017-08-28T10:56:49.847Z,99603
2017-08-28T10:58:58.492Z,99604
2017-08-28T11:01:07.899Z,99603
2017-08-28T11:03:13.566Z,99599
2017-08-28T11:05:19.145Z,99593
2017-08-28T11:07:24.978Z,99595
2017-08-28T11:09:30.608Z,99601
2017-08-28T11:11:37.659Z,99601
2017-08-28T11:13:48.058Z,99595
2017-08-28T11:15:58.256Z,99596
2017-08-28T11:18:03.984Z,99593
2017-08-28T11:20:10.768Z,99593
2017-08-28T11:22:18.991Z,99595
2017-08-28T11:24:24.554Z,99595
2017-08-28T11:26:30.823Z,99592
2017-08-28T11:28:36.685Z,99589
2017-08-28T11:30:46.922Z,99587
2017-08-28T11:32:53.699Z,99591
2017-08-28T11:34:59.902Z,99583
2017-08-28T11:37:05.743Z,99585
2017-08-28T11:39:12.028Z,99579
2017-08-28T11:41:17.879Z,99575
2017-08-28T11:43:24.317Z,99577
2017-08-28T11:45:30.876Z,99570
2017-08-28T11:47:36.800Z,99573
2017-08-28T11:49:53.920Z,99570
2017-08-28T11:52:00.796Z,99560
2017-08-28T11:54:07.623Z,99572
2017-08-28T11:56:15.128Z,99571
2017-08-28T11:58:23.374Z,99569
2017-08-28T12:00:29.573Z,99569
2017-08-28T12:02:36.392Z,99562
2017-08-28T12:04:47.711Z,99562
2017-08-28T12:06:55.875Z,99563
2017-08-28T12:09:02.685Z,99569
2017-08-28T12:11:09.955Z,99570
2017-08-28T12:13:16.695Z,99564
2017-08-28T12:15:23.303Z,99565
2017-08-28T12:17:30.513Z,99555
2017-08-28T12:19:38.463Z,99560
2017-08-28T12:21:50.515Z,99552
2017-08-28T12:23:59.230Z,99559
2017-08-28T12:26:05.977Z,99565
2017-08-28T12:28:12.913Z,99559
2017-08-28T12:30:21.026Z,99554
2017-08-28T12:32:28.836Z,99556
2017-08-28T12:34:36.801Z,99556
2017-08-28T12:36:47.995Z,99553
2017-08-28T12:38:57.803Z,99553
2017-08-28T12:41:07.074Z,99544
2017-08-28T12:43:13.410Z,99545
2017-08-28T12:45:19.964Z,99544
2017-08-28T12:47:27.158Z,99541
2017-08-28T12:49:34.211Z,99538
2017-08-28T12:51:45.173Z,99537
2017-08-28T12:53:52.545Z,99538
2017-08-28T12:56:03.146Z,99539
2017-08-28T12:58:10.844Z,99541
2017-08-28T13:00:18.040Z,99535
2017-08-28T13:02:24.557Z,99528
2017-08-28T13:04:31.516Z,99525
2017-08-28T13:06:38.666Z,99521
2017-08-28T13:08:48.734Z,99524
2017-08-28T13:10:55.820Z,99518
2017-08-28T13:13:01.999Z,99518
2017-08-28T13:15:10.233Z,99519
2017-08-28T13:17:17.984Z,99511
2017-08-28T13:19:23.668Z,99511
2017-08-28T13:21:30.065Z,99509
2017-08-28T13:23:38.611Z,99514
2017-08-28T13:25:48.308Z,99510
2017-08-28T13:28:06.960Z,99512
2017-08-28T13:30:13.750Z,99513
2017-08-28T13:32:23.981Z,99514
2017-08-28T13:34:34.734Z,99508
2017-08-28T13:36:44.318Z,99511
2017-08-28T13:38:51.215Z,99510
2017-08-28T13:41:00.671Z,99510
2017-08-28T13:43:07.220Z,99504
2017-08-28T13:45:13.106Z,99508
2017-08-28T13:47:19.636Z,99505
2017-08-28T13:49:25.468Z,99497
2017-08-28T13:51:31.236Z,99499
2017-08-28T13:53:41.364Z,99495
2017-08-28T13:55:50.720Z,99498
2017-08-28T13:58:06.512Z,99493
2017-08-28T14:00:34.277Z,99499
2017-08-28T14:02:48.782Z,99494
2017-08-28T14:05:11.216Z,99494
2017-08-28T14:07:17.193Z,99493
2017-08-28T14:09:23.704Z,99493
2017-08-28T14:11:30.898Z,99494
2017-08-28T14:13:40.096Z,99491
2017-08-28T14:15:50.363Z,99490
2017-08-28T14:17:57.298Z,99487
2017-08-28T14:20:03.805Z,99483
2017-08-28T14:22:12.883Z,99483
2017-08-28T14:24:18.735Z,99477
2017-08-28T14:26:26.714Z,99480
2017-08-28T14:28:41.781Z,99479
2017-08-28T14:30:51.526Z,99474
2017-08-28T14:33:00.713Z,99466
2017-08-28T14:35:08.133Z,99470
2017-08-28T14:37:15.425Z,99467
2017-08-28T14:39:21.670Z,99462
2017-08-28T14:41:27.311Z,99460
2017-08-28T14:43:34.969Z,99454
2017-08-28T14:45:48.123Z,99456
2017-08-28T14:48:02.164Z,99451
2017-08-28T14:50:08.967Z,99447
2017-08-28T14:52:15.249Z,99450
2017-08-28T14:54:21.458Z,99444
2017-08-28T14:56:27.823Z,99443
2017-08-28T14:58:34.277Z,99438
2017-08-28T15:00:41.535Z,99440
2017-08-28T15:02:50.731Z,99439
2017-08-28T15:05:04.752Z,99438
2017-08-28T15:07:12.405Z,99440
2017-08-28T15:09:18.386Z,99439
2017-08-28T15:11:25.499Z,99443
2017-08-28T15:13:31.643Z,99447
2017-08-28T15:15:40.130Z,99449
2017-08-28T15:18:01.703Z,99445
2017-08-28T15:20:08.216Z,99451
2017-08-28T15:22:18.371Z,99446
2017-08-28T15:24:26.668Z,99444
2017-08-28T15:26:32.376Z,99443
2017-08-28T15:28:39.567Z,99444
2017-08-28T15:30:49.115Z,99438
2017-08-28T15:32:56.769Z,99440
2017-08-28T15:35:03.295Z,99442
2017-08-28T15:37:10.692Z,99436
2017-08-28T15:39:16.469Z,99432
2017-08-28T15:41:22.400Z,99431
2017-08-28T15:43:28.136Z,99427
2017-08-28T15:45:33.923Z,99427
2017-08-28T15:47:39.783Z,99426
2017-08-28T15:49:50.194Z,99423
2017-08-28T15:51:58.710Z,99417
2017-08-28T15:54:04.877Z,99411
2017-08-28T15:56:11.002Z,99412
2017-08-28T15:58:17.606Z,99410
2017-08-28T16:00:23.818Z,99412
2017-08-28T16:02:30.290Z,99412
2017-08-28T16:04:36.077Z,99413
2017-08-28T16:08:55.958Z,99408
2017-08-28T16:11:02.391Z,99405
2017-08-28T16:13:09.423Z,99410
2017-08-28T16:15:19.580Z,99410
2017-08-28T16:17:26.048Z,99410
2017-08-28T16:19:31.650Z,99413
2017-08-28T16:21:37.521Z,99409
2017-08-28T16:23:45.362Z,99404
2017-08-28T16:25:51.655Z,99399
2017-08-28T16:28:00.790Z,99404
2017-08-28T16:30:07.238Z,99403
2017-08-28T16:32:12.989Z,99400
2017-08-28T16:34:18.969Z,99404
2017-08-28T16:36:24.895Z,99406
2017-08-28T16:38:30.812Z,99409
2017-08-28T16:40:37.106Z,99403
2017-08-28T16:42:45.920Z,99402
2017-08-28T16:44:52.209Z,99404
2017-08-28T16:47:00.025Z,99403
2017-08-28T16:49:05.788Z,99401
2017-08-28T16:51:11.518Z,99407
2017-08-28T16:53:17.577Z,99403
2017-08-28T16:55:23.270Z,99404
2017-08-28T16:57:28.991Z,99399
2017-08-28T16:59:35.024Z,99401
2017-08-28T17:01:42.282Z,99407
2017-08-28T17:03:50.055Z,99408
2017-08-28T17:06:02.684Z,99407
2017-08-28T17:08:08.337Z,99410
2017-08-28T17:10:14.064Z,99412
2017-08-28T17:12:23.002Z,99413
2017-08-28T17:14:28.695Z,99411
2017-08-28T17:16:34.558Z,99416
2017-08-28T17:18:44.003Z,99414
2017-08-28T17:20:52.537Z,99414
2017-08-28T17:23:02.328Z,99421
2017-08-28T17:25:09.871Z,99422
2017-08-28T17:27:16.531Z,99416
2017-08-28T17:29:23.079Z,99426
2017-08-28T17:31:29.222Z,99426
2017-08-28T17:33:35.505Z,99424
2017-08-28T17:35:44.279Z,99428
2017-08-28T17:37:52.497Z,99433
2017-08-28T17:40:00.760Z,99433
2017-08-28T17:42:07.149Z,99434
2017-08-28T17:44:15.970Z,99439
2017-08-28T17:46:22.274Z,99437
2017-08-28T17:48:27.994Z,99440
2017-08-28T17:50:34.141Z,99444
2017-08-28T17:52:39.887Z,99449
2017-08-28T17:54:48.840Z,99449
2017-08-28T17:56:56.120Z,99447
2017-08-28T17:59:02.291Z,99451
2017-08-28T18:01:08.349Z,99454
2017-08-28T18:03:15.511Z,99453
2017-08-28T18:05:26.034Z,99457
2017-08-28T18:07:34.672Z,99456
2017-08-28T18:09:51.884Z,99462
2017-08-28T18:11:57.669Z,99462
2017-08-28T18:14:05.605Z,99460
2017-08-28T18:16:13.991Z,99458
2017-08-28T18:18:20.272Z,99461
2017-08-28T18:20:28.689Z,99462
2017-08-28T18:22:35.598Z,99465
2017-08-28T18:24:45.338Z,99467
2017-08-28T18:26:51.773Z,99469
2017-08-28T18:28:57.787Z,99468
2017-08-28T18:31:05.274Z,99467
2017-08-28T18:33:11.914Z,99473
2017-08-28T18:35:19.293Z,99474
2017-08-28T18:37:25.213Z,99473
2017-08-28T18:39:31.045Z,99472
2017-08-28T18:41:37.334Z,99480
2017-08-28T18:43:47.585Z,99477
2017-08-28T18:45:54.043Z,99474
2017-08-28T18:48:03.648Z,99480
2017-08-28T18:50:12.787Z,99480
2017-08-28T18:52:20.917Z,99482
2017-08-28T18:54:29.345Z,99481
2017-08-28T18:56:36.257Z,99483
2017-08-28T18:58:48.456Z,99482
2017-08-28T19:00:59.589Z,99485
2017-08-28T19:03:07.167Z,99482
2017-08-28T19:05:14.203Z,99480
2017-08-28T19:07:20.949Z,99486
2017-08-28T19:09:27.760Z,99490
2017-08-28T19:11:39.858Z,99485
2017-08-28T19:13:54.249Z,99485
2017-08-28T19:16:03.742Z,99483
2017-08-28T19:18:11.183Z,99488
2017-08-28T19:20:18.309Z,99486
2017-08-28T19:22:26.212Z,99484
2017-08-28T19:24:32.920Z,99486
2017-08-28T19:26:45.005Z,99483
2017-08-28T19:28:53.314Z,99488
2017-08-28T19:31:02.394Z,99486
2017-08-28T19:33:10.203Z,99485
2017-08-28T19:35:28.291Z,99490
2017-08-28T19:37:34.428Z,99491
2017-08-28T19:39:40.913Z,99494
2017-08-28T19:41:49.876Z,99484
2017-08-28T19:43:59.344Z,99485
2017-08-28T19:46:06.757Z,99484
2017-08-28T19:48:13.997Z,99487
2017-08-28T19:50:20.110Z,99486
2017-08-28T19:52:26.655Z,99491
2017-08-28T19:54:33.681Z,99487
2017-08-28T19:56:42.341Z,99489
2017-08-28T19:58:52.261Z,99496
2017-08-28T20:01:00.030Z,99492
2017-08-28T20:03:08.911Z,99498
2017-08-28T20:05:16.189Z,99498
2017-08-28T20:07:22.036Z,99500
2017-08-28T20:09:28.780Z,99499
2017-08-28T20:11:37.154Z,99506
2017-08-28T20:13:48.712Z,99506
2017-08-28T20:16:04.245Z,99504
2017-08-28T20:18:15.398Z,99508
2017-08-28T20:20:24.299Z,99512
2017-08-28T20:22:31.815Z,99512
2017-08-28T20:29:37.117Z,99512
2017-08-28T20:31:50.103Z,99512
2017-08-28T20:34:21.638Z,99509
2017-08-28T20:36:28.694Z,99510
2017-08-28T20:38:36.754Z,99508
2017-08-28T20:40:45.412Z,99513
2017-08-28T20:42:54.250Z,99512
2017-08-28T20:45:02.343Z,99513
2017-08-28T20:47:10.107Z,99515
2017-08-28T20:49:16.541Z,99512
2017-08-28T20:51:25.105Z,99502
2017-08-28T20:53:32.726Z,99507
2017-08-28T20:55:39.907Z,99510
2017-08-28T20:57:51.844Z,99509
2017-08-28T21:00:00.419Z,99513
2017-08-28T21:02:06.994Z,99512
2017-08-28T21:04:13.980Z,99512
2017-08-28T21:06:21.034Z,99508
2017-08-28T21:08:28.394Z,99514
2017-08-28T21:10:33.982Z,99507
2017-08-28T21:12:40.555Z,99510
2017-08-28T21:14:48.504Z,99503
2017-08-28T21:16:57.017Z,99507
2017-08-28T21:19:02.783Z,99502
2017-08-28T21:21:08.777Z,99496
2017-08-28T21:23:15.174Z,99497
2017-08-28T21:25:20.881Z,99493
2017-08-28T21:27:26.633Z,99495
2017-08-28T21:29:33.016Z,99492
2017-08-28T21:31:40.234Z,99493
2017-08-28T21:33:51.475Z,99489
2017-08-28T21:36:02.926Z,99488
2017-08-28T21:38:08.757Z,99494
2017-08-28T21:40:14.588Z,99494
2017-08-28T21:42:20.537Z,99495
2017-08-28T21:44:26.484Z,99494
2017-08-28T21:46:35.026Z,99494
2017-08-28T21:48:44.694Z,99494
2017-08-28T21:50:54.352Z,99501
2017-08-28T21:53:00.992Z,99494
2017-08-28T21:55:07.237Z,99494
2017-08-28T21:57:12.995Z,99494
2017-08-28T21:59:18.884Z,99496
2017-08-28T22:01:25.164Z,99490
2017-08-28T22:03:31.347Z,99489
2017-08-28T22:05:36.984Z,99488
2017-08-28T22:07:46.311Z,99488
2017-08-28T22:09:55.532Z,99491
2017-08-28T22:12:06.011Z,99490
2017-08-28T22:14:12.576Z,99487
2017-08-28T22:16:18.636Z,99488
2017-08-28T22:18:30.184Z,99489
2017-08-28T22:20:37.122Z,99478
2017-08-28T22:22:47.937Z,99478
2017-08-28T22:24:58.035Z,99480
2017-08-28T22:27:04.097Z,99484
2017-08-28T22:29:10.552Z,99487
2017-08-28T22:31:16.932Z,99485
2017-08-28T22:33:23.838Z,99487
2017-08-28T22:35:29.590Z,99482
2017-08-28T22:37:35.660Z,99477
2017-08-28T22:39:46.206Z,99480
2017-08-28T22:41:54.013Z,99477
2017-08-28T22:44:08.465Z,99472
2017-08-28T22:46:14.421Z,99479
2017-08-28T22:48:25.733Z,99479
2017-08-28T22:50:38.795Z,99477
2017-08-28T22:52:49.406Z,99479
2017-08-28T22:54:58.119Z,99484
2017-08-28T22:57:05.751Z,99478
2017-08-28T22:59:16.753Z,99473
2017-08-28T23:01:22.693Z,99474
2017-08-28T23:03:28.260Z,99467
2017-08-28T23:05:34.251Z,99472
2017-08-28T23:07:40.353Z,99461
2017-08-28T23:09:51.707Z,99461
2017-08-28T23:12:00.336Z,99459
2017-08-28T23:14:06.001Z,99454
2017-08-28T23:16:12.657Z,99451
2017-08-28T23:18:19.373Z,99450
2017-08-28T23:20:26.217Z,99445
2017-08-28T23:22:31.868Z,99442
2017-08-28T23:24:38.662Z,99439
2017-08-28T23:26:49.939Z,99443
2017-08-28T23:28:58.900Z,99443
2017-08-28T23:31:05.605Z,99444
2017-08-28T23:33:12.504Z,99446
2017-08-28T23:35:19.532Z,99443
2017-08-28T23:37:26.341Z,99443
2017-08-28T23:39:33.033Z,99444
2017-08-28T23:41:40.096Z,99441
2017-08-28T23:43:49.318Z,99440
2017-08-28T23:45:54.813Z,99444
2017-08-28T23:48:00.511Z,99439
2017-08-28T23:50:06.472Z,99437
2017-08-28T23:52:13.188Z,99434
2017-08-28T23:54:19.872Z,99437
2017-08-28T23:56:26.842Z,99436
2017-08-28T23:58:33.862Z,99435
